createdAt,value
2019-06-07T00:00:39.702Z,48.10
2019-06-07T00:03:00.226Z,48.20
2019-06-07T00:05:26.548Z,48.20
2019-06-07T00:07:52.990Z,48.10
2019-06-07T00:10:34.901Z,48.20
2019-06-07T00:12:47.712Z,48.10
2019-06-07T00:15:19.976Z,48.10
2019-06-07T00:17:42.448Z,48.10
2019-06-07T00:20:13.440Z,48.20
2019-06-07T00:22:37.193Z,48.30
2019-06-07T00:25:05.498Z,48.40
2019-06-07T00:27:31.828Z,48.40
2019-06-07T00:29:58.246Z,48.50
2019-06-07T00:32:24.673Z,48.50
2019-06-07T00:34:51.307Z,48.60
2019-06-07T00:37:20.681Z,48.70
2019-06-07T00:39:59.459Z,48.80
2019-06-07T00:42:18.613Z,48.90
2019-06-07T00:44:43.087Z,48.70
2019-06-07T00:47:10.685Z,48.80
2019-06-07T00:49:41.525Z,49.20
2019-06-07T00:52:05.583Z,48.70
2019-06-07T00:54:31.888Z,48.50
2019-06-07T00:56:58.328Z,48.30
2019-06-07T00:59:29.182Z,48.30
2019-06-07T01:01:53.192Z,48.30
2019-06-07T01:04:22.821Z,48.30
2019-06-07T01:06:47.752Z,47.80
2019-06-07T01:09:15.346Z,47.90
2019-06-07T01:11:42.320Z,48.20
2019-06-07T01:14:08.751Z,47.80
2019-06-07T01:16:55.641Z,47.50
2019-06-07T01:19:03.809Z,47.20
2019-06-07T01:21:30.160Z,47.40
2019-06-07T01:24:11.365Z,47.00
2019-06-07T01:26:29.450Z,46.90
2019-06-07T01:28:53.257Z,46.90
2019-06-07T01:31:21.135Z,46.80
2019-06-07T01:33:51.256Z,47.00
2019-06-07T01:36:17.918Z,47.00
2019-06-07T01:38:44.235Z,46.80
2019-06-07T01:41:10.561Z,46.80
2019-06-07T01:43:36.977Z,46.90
2019-06-07T01:46:03.279Z,46.90
2019-06-07T01:48:48.498Z,46.90
2019-06-07T01:50:57.915Z,46.90
2019-06-07T01:53:26.374Z,46.80
2019-06-07T01:55:52.447Z,46.80
2019-06-07T01:58:19.810Z,46.80
2019-06-07T02:00:46.973Z,46.80
2019-06-07T02:03:13.503Z,46.80
2019-06-07T02:05:39.828Z,47.10
2019-06-07T02:08:06.127Z,47.10
2019-06-07T02:10:33.624Z,47.10
2019-06-07T02:13:00.477Z,47.20
2019-06-07T02:15:31.083Z,47.20
2019-06-07T02:17:55.139Z,47.10
2019-06-07T02:20:23.838Z,47.10
2019-06-07T02:22:50.012Z,46.90
2019-06-07T02:25:37.049Z,46.90
2019-06-07T02:27:44.535Z,47.10
2019-06-07T02:30:36.751Z,46.90
2019-06-07T02:32:39.131Z,46.90
2019-06-07T02:35:05.408Z,46.80
2019-06-07T02:37:36.521Z,46.70
2019-06-07T02:40:00.048Z,46.70
2019-06-07T02:42:30.748Z,46.70
2019-06-07T02:44:54.797Z,46.60
2019-06-07T02:47:22.666Z,46.40
2019-06-07T02:49:49.356Z,46.50
2019-06-07T02:52:16.172Z,46.50
2019-06-07T02:54:42.511Z,46.40
2019-06-07T02:57:08.930Z,46.40
2019-06-07T03:00:03.101Z,46.50
2019-06-07T03:02:03.581Z,46.50
2019-06-07T03:04:34.912Z,46.80
2019-06-07T03:06:58.063Z,46.80
2019-06-07T03:09:26.221Z,46.90
2019-06-07T03:11:52.823Z,47.00
2019-06-07T03:14:19.677Z,47.00
2019-06-07T03:16:49.077Z,47.00
2019-06-07T03:19:23.447Z,47.10
2019-06-07T03:21:51.676Z,47.10
2019-06-07T03:24:21.714Z,47.70
2019-06-07T03:27:31.870Z,47.10
2019-06-07T03:29:16.450Z,47.10
2019-06-07T03:31:47.742Z,47.00
2019-06-07T03:34:10.965Z,46.80
2019-06-07T03:36:40.245Z,46.90
2019-06-07T03:39:05.924Z,47.00
2019-06-07T03:41:40.061Z,47.00
2019-06-07T03:44:00.580Z,47.00
2019-06-07T03:46:27.306Z,47.40
2019-06-07T03:48:53.922Z,47.00
2019-06-07T03:51:25.208Z,47.00
2019-06-07T03:53:48.467Z,46.90
2019-06-07T03:56:15.719Z,46.90
2019-06-07T03:58:49.526Z,47.00
2019-06-07T04:01:10.941Z,47.00
2019-06-07T04:03:46.343Z,46.90
2019-06-07T04:06:05.559Z,46.90
2019-06-07T04:08:34.471Z,46.90
2019-06-07T04:11:00.902Z,47.10
2019-06-07T04:13:30.536Z,47.20
2019-06-07T04:15:55.768Z,47.20
2019-06-07T04:18:22.183Z,47.10
2019-06-07T04:20:48.522Z,47.10
2019-06-07T04:23:27.826Z,47.00
2019-06-07T04:25:43.273Z,47.10
2019-06-07T04:28:09.717Z,47.50
2019-06-07T04:30:43.774Z,46.90
2019-06-07T04:33:10.882Z,47.00
2019-06-07T04:35:40.016Z,46.80
2019-06-07T04:38:09.368Z,46.80
2019-06-07T04:40:36.966Z,46.90
2019-06-07T04:43:04.591Z,46.80
2019-06-07T04:45:36.289Z,46.80
2019-06-07T04:48:01.988Z,46.80
2019-06-07T04:50:33.621Z,46.90
2019-06-07T04:52:58.466Z,47.00
2019-06-07T04:55:24.763Z,47.00
2019-06-07T04:57:51.279Z,47.00
2019-06-07T05:00:48.838Z,47.10
2019-06-07T05:02:49.726Z,47.00
2019-06-07T05:05:16.148Z,47.00
2019-06-07T05:07:46.046Z,47.10
2019-06-07T05:10:10.802Z,47.10
2019-06-07T05:12:41.554Z,47.10
2019-06-07T05:15:05.385Z,46.90
2019-06-07T05:17:32.917Z,46.90
2019-06-07T05:20:01.657Z,46.90
2019-06-07T05:22:27.997Z,46.80
2019-06-07T05:24:54.487Z,46.70
2019-06-07T05:27:21.101Z,46.80
2019-06-07T05:30:08.789Z,46.70
2019-06-07T05:32:15.982Z,46.60
2019-06-07T05:34:47.432Z,46.50
2019-06-07T05:37:13.758Z,46.50
2019-06-07T05:39:45.313Z,46.40
2019-06-07T05:42:08.755Z,46.40
2019-06-07T05:44:36.518Z,46.60
2019-06-07T05:47:03.726Z,46.60
2019-06-07T05:49:30.270Z,46.60
2019-06-07T05:51:56.680Z,46.60
2019-06-07T05:54:23.095Z,46.60
2019-06-07T05:56:49.670Z,46.60
2019-06-07T05:59:16.974Z,46.40
2019-06-07T06:01:53.468Z,46.20
2019-06-07T06:04:15.326Z,46.60
2019-06-07T06:06:43.803Z,46.50
2019-06-07T06:09:13.842Z,46.40
2019-06-07T06:11:49.451Z,46.30
2019-06-07T06:14:08.309Z,46.30
2019-06-07T06:16:37.296Z,46.20
2019-06-07T06:19:04.228Z,46.10
2019-06-07T06:21:30.649Z,46.20
2019-06-07T06:23:57.172Z,46.10
2019-06-07T06:26:23.501Z,46.10
2019-06-07T06:28:50.174Z,46.00
2019-06-07T06:31:16.689Z,46.10
2019-06-07T06:33:44.665Z,46.00
2019-06-07T06:36:11.095Z,46.00
2019-06-07T06:38:38.563Z,46.00
2019-06-07T06:41:16.021Z,46.10
2019-06-07T06:43:33.925Z,46.00
2019-06-07T06:46:00.385Z,46.50
2019-06-07T06:48:27.219Z,46.70
2019-06-07T06:50:53.759Z,46.00
2019-06-07T06:53:20.090Z,46.20
2019-06-07T06:55:49.251Z,46.10
2019-06-07T06:58:14.988Z,46.30
2019-06-07T07:00:54.829Z,46.40
2019-06-07T07:05:44.006Z,42.50
2019-06-07T07:08:12.027Z,38.00
2019-06-07T07:10:43.424Z,38.90
2019-06-07T07:13:14.919Z,40.20
2019-06-07T07:15:45.347Z,40.20
2019-06-07T07:18:12.813Z,40.90
2019-06-07T07:20:39.365Z,41.00
2019-06-07T07:23:05.932Z,41.30
2019-06-07T07:25:32.489Z,41.60
2019-06-07T07:27:58.965Z,41.90
2019-06-07T07:30:41.924Z,42.00
2019-06-07T07:33:14.751Z,42.00
2019-06-07T07:36:03.241Z,42.30
2019-06-07T07:38:09.599Z,43.20
2019-06-07T07:40:56.797Z,42.90
2019-06-07T07:43:05.180Z,40.40
2019-06-07T07:45:31.729Z,40.10
2019-06-07T07:48:14.187Z,40.20
2019-06-07T07:50:29.458Z,40.60
2019-06-07T07:53:00.662Z,39.80
2019-06-07T07:55:24.859Z,39.70
2019-06-07T07:57:56.859Z,39.30
2019-06-07T08:00:50.346Z,38.90
2019-06-07T08:02:53.787Z,38.60
2019-06-07T08:05:29.050Z,38.60
2019-06-07T08:07:53.062Z,38.80
2019-06-07T08:10:17.435Z,38.60
2019-06-07T08:13:00.681Z,38.50
2019-06-07T08:15:12.556Z,38.50
2019-06-07T08:17:39.735Z,38.30
2019-06-07T08:20:09.133Z,38.40
2019-06-07T08:22:36.031Z,38.80
2019-06-07T08:25:04.683Z,38.30
2019-06-07T08:27:31.078Z,38.40
2019-06-07T08:30:16.411Z,38.80
2019-06-07T08:32:25.771Z,38.80
2019-06-07T08:38:13.300Z,38.80
2019-06-07T08:39:58.809Z,38.40
2019-06-07T08:42:36.456Z,38.70
2019-06-07T08:44:55.948Z,39.20
2019-06-07T08:47:21.302Z,39.40
2019-06-07T08:49:48.185Z,39.80
2019-06-07T08:52:15.132Z,40.30
2019-06-07T08:54:41.564Z,40.60
2019-06-07T08:57:20.571Z,40.60
2019-06-07T08:59:36.155Z,40.80
2019-06-07T09:02:14.482Z,41.00
2019-06-07T09:04:31.447Z,41.30
2019-06-07T09:07:18.108Z,41.10
2019-06-07T09:09:25.976Z,41.30
2019-06-07T09:11:54.279Z,41.30
2019-06-07T09:14:21.546Z,41.70
2019-06-07T09:16:48.027Z,41.30
2019-06-07T09:19:14.602Z,41.50
2019-06-07T09:21:44.045Z,41.60
2019-06-07T09:24:11.880Z,41.50
2019-06-07T09:26:38.627Z,41.50
2019-06-07T09:29:08.366Z,41.50
2019-06-07T09:31:51.069Z,42.20
2019-06-07T09:34:08.006Z,41.50
2019-06-07T09:36:29.954Z,41.50
2019-06-07T09:38:58.700Z,41.50
2019-06-07T09:41:46.302Z,41.40
2019-06-07T09:44:04.617Z,41.50
2019-06-07T09:46:22.193Z,41.50
2019-06-07T09:51:20.276Z,42.20
2019-06-07T09:53:46.330Z,42.40
2019-06-07T09:56:12.879Z,42.40
2019-06-07T09:58:54.707Z,42.80
2019-06-07T10:01:12.426Z,43.10
2019-06-07T10:03:40.748Z,43.10
2019-06-07T10:06:09.821Z,43.50
2019-06-07T10:11:04.778Z,43.40
2019-06-07T10:13:31.228Z,43.60
2019-06-07T10:15:58.864Z,44.00
2019-06-07T10:18:25.640Z,44.40
2019-06-07T10:20:52.043Z,45.00
2019-06-07T10:23:18.340Z,45.00
2019-06-07T10:25:44.731Z,45.20
2019-06-07T10:28:11.087Z,45.30
2019-06-07T10:30:37.789Z,45.30
2019-06-07T10:33:04.834Z,45.40
2019-06-07T10:35:32.458Z,45.70
2019-06-07T10:38:00.233Z,45.40
2019-06-07T10:40:27.123Z,45.50
2019-06-07T10:42:53.471Z,45.60
2019-06-07T10:45:19.999Z,45.80
2019-06-07T10:47:46.653Z,45.80
2019-06-07T10:50:15.124Z,45.90
2019-06-07T10:52:41.423Z,46.00
2019-06-07T10:55:08.653Z,46.10
2019-06-07T10:57:35.567Z,46.10
2019-06-07T11:00:05.304Z,46.00
2019-06-07T11:02:31.844Z,46.00
2019-06-07T11:04:58.155Z,46.20
2019-06-07T11:07:24.476Z,46.20
2019-06-07T11:10:05.726Z,46.30
2019-06-07T11:12:19.143Z,46.90
2019-06-07T11:14:46.262Z,46.40
2019-06-07T11:17:13.427Z,46.50
2019-06-07T11:19:40.121Z,46.70
2019-06-07T11:22:07.680Z,46.90
2019-06-07T11:24:44.633Z,47.00
2019-06-07T11:27:13.533Z,46.90
2019-06-07T11:29:39.921Z,46.90
2019-06-07T11:32:08.300Z,46.90
2019-06-07T11:34:40.321Z,46.90
2019-06-07T11:37:09.398Z,46.90
2019-06-07T11:39:37.150Z,47.10
2019-06-07T11:42:03.443Z,47.10
2019-06-07T11:44:30.152Z,47.50
2019-06-07T11:46:56.412Z,47.50
2019-06-07T11:49:22.830Z,47.60
2019-06-07T11:51:49.756Z,47.70
2019-06-07T11:54:16.290Z,47.80
2019-06-07T11:56:43.111Z,48.00
2019-06-07T11:59:09.619Z,48.00
2019-06-07T12:01:37.357Z,48.30
2019-06-07T12:04:04.293Z,48.60
2019-06-07T12:06:30.934Z,48.70
2019-06-07T12:08:57.686Z,48.60
2019-06-07T12:11:24.232Z,48.50
2019-06-07T12:13:52.904Z,48.50
2019-06-07T12:16:19.658Z,48.50
2019-06-07T12:18:46.216Z,48.50
2019-06-07T12:21:13.626Z,48.70
2019-06-07T12:23:40.591Z,48.70
2019-06-07T12:26:07.387Z,49.00
2019-06-07T12:28:33.764Z,49.20
2019-06-07T12:31:00.051Z,49.10
2019-06-07T12:33:26.620Z,49.10
2019-06-07T12:35:53.176Z,49.90
2019-06-07T12:38:20.988Z,49.10
2019-06-07T12:40:57.245Z,48.90
2019-06-07T12:43:16.713Z,48.60
2019-06-07T12:45:45.536Z,48.60
2019-06-07T12:48:16.293Z,48.60
2019-06-07T12:50:43.041Z,48.70
2019-06-07T12:53:10.454Z,48.70
2019-06-07T12:55:37.419Z,48.60
2019-06-07T12:58:04.049Z,48.70
2019-06-07T13:00:30.452Z,48.50
2019-06-07T13:02:57.136Z,48.40
2019-06-07T13:05:26.044Z,48.50
2019-06-07T13:07:57.287Z,48.40
2019-06-07T13:10:24.300Z,48.50
2019-06-07T13:12:54.733Z,48.40
2019-06-07T13:15:23.839Z,48.50
2019-06-07T13:17:55.295Z,48.40
2019-06-07T13:20:24.602Z,48.40
2019-06-07T13:22:51.388Z,48.40
2019-06-07T13:25:21.258Z,48.50
2019-06-07T13:27:47.595Z,48.50
2019-06-07T13:30:14.147Z,48.40
2019-06-07T13:32:40.610Z,48.50
2019-06-07T13:35:07.513Z,48.60
2019-06-07T13:37:34.225Z,48.60
2019-06-07T13:40:01.449Z,48.80
2019-06-07T13:42:30.635Z,48.70
2019-06-07T13:44:57.014Z,49.60
2019-06-07T13:47:24.928Z,49.10
2019-06-07T13:49:56.624Z,49.70
2019-06-07T13:52:23.061Z,49.40
2019-06-07T13:54:49.493Z,49.30
2019-06-07T13:57:16.011Z,49.10
2019-06-07T13:59:42.642Z,48.80
2019-06-07T14:02:09.626Z,48.60
2019-06-07T14:04:36.170Z,48.40
2019-06-07T14:07:02.708Z,48.30
2019-06-07T14:09:29.762Z,47.90
2019-06-07T14:11:56.811Z,47.80
2019-06-07T14:14:24.958Z,47.60
2019-06-07T14:16:51.703Z,47.30
2019-06-07T14:19:18.022Z,47.10
2019-06-07T14:21:44.687Z,46.90
2019-06-07T14:24:14.089Z,46.50
2019-06-07T14:26:42.370Z,46.40
2019-06-07T14:29:08.777Z,45.80
2019-06-07T14:31:35.328Z,45.80
2019-06-07T14:34:02.337Z,45.60
2019-06-07T14:36:29.374Z,45.40
2019-06-07T14:38:55.781Z,45.30
2019-06-07T14:41:23.166Z,45.30
2019-06-07T14:43:49.613Z,45.30
2019-06-07T14:46:16.062Z,45.20
2019-06-07T14:48:42.511Z,45.30
2019-06-07T14:51:09.044Z,45.30
2019-06-07T14:53:35.469Z,45.20
2019-06-07T14:56:01.910Z,45.90
2019-06-07T14:58:29.395Z,45.50
2019-06-07T15:00:56.171Z,45.40
2019-06-07T15:03:22.604Z,45.30
2019-06-07T15:05:49.023Z,45.40
2019-06-07T15:08:15.584Z,45.50
2019-06-07T15:10:41.959Z,45.40
2019-06-07T15:13:08.397Z,45.50
2019-06-07T15:15:34.866Z,45.50
2019-06-07T15:18:01.442Z,45.30
2019-06-07T15:20:27.973Z,45.30
2019-06-07T15:22:54.410Z,45.10
2019-06-07T15:25:20.940Z,45.20
2019-06-07T15:27:47.631Z,45.30
2019-06-07T15:30:13.904Z,45.30
2019-06-07T15:32:40.398Z,45.30
2019-06-07T15:35:07.009Z,45.20
2019-06-07T15:37:34.578Z,45.20
2019-06-07T15:40:01.513Z,45.40
2019-06-07T15:42:40.659Z,44.50
2019-06-07T15:44:56.621Z,44.40
2019-06-07T15:47:23.088Z,45.00
2019-06-07T15:49:49.403Z,43.70
2019-06-07T15:52:15.740Z,44.00
2019-06-07T15:54:42.283Z,43.50
2019-06-07T15:57:08.585Z,43.30
2019-06-07T15:59:35.814Z,42.90
2019-06-07T16:02:02.625Z,42.50
2019-06-07T16:04:29.083Z,41.90
2019-06-07T16:06:55.589Z,41.80
2019-06-07T16:09:22.128Z,41.60
2019-06-07T16:11:48.580Z,41.30
2019-06-07T16:14:14.879Z,40.70
2019-06-07T16:16:41.481Z,40.10
2019-06-07T16:19:08.014Z,39.70
2019-06-07T16:21:35.258Z,39.30
2019-06-07T16:24:01.920Z,39.20
2019-06-07T16:26:28.234Z,39.30
2019-06-07T16:28:57.276Z,39.20
2019-06-07T16:31:26.694Z,39.00
2019-06-07T16:34:00.882Z,39.10
2019-06-07T16:36:31.175Z,38.90
2019-06-07T16:39:02.850Z,38.90
2019-06-07T16:41:33.824Z,38.80
2019-06-07T16:44:05.949Z,38.60
2019-06-07T16:46:34.038Z,38.30
2019-06-07T16:49:00.716Z,38.40
2019-06-07T16:51:27.615Z,38.60
2019-06-07T16:53:54.121Z,38.60
2019-06-07T16:56:21.334Z,38.50
2019-06-07T16:58:48.701Z,38.50
2019-06-07T17:01:15.400Z,39.30
2019-06-07T17:03:41.712Z,40.60
2019-06-07T17:06:08.164Z,40.40
2019-06-07T17:08:34.748Z,40.70
2019-06-07T17:11:01.420Z,40.60
2019-06-07T17:13:33.487Z,40.90
2019-06-07T17:15:56.239Z,40.80
2019-06-07T17:18:23.133Z,41.40
2019-06-07T17:20:49.681Z,41.40
2019-06-07T17:23:16.224Z,41.30
2019-06-07T17:25:43.524Z,41.30
2019-06-07T17:28:10.090Z,41.30
2019-06-07T17:30:39.783Z,41.40
2019-06-07T17:33:06.374Z,41.40
2019-06-07T17:35:32.703Z,41.30
2019-06-07T17:38:00.332Z,41.20
2019-06-07T17:40:26.874Z,41.50
2019-06-07T17:42:53.404Z,41.50
2019-06-07T17:45:19.999Z,41.20
2019-06-07T17:47:49.906Z,39.70
2019-06-07T17:50:16.350Z,39.00
2019-06-07T17:52:43.757Z,38.70
2019-06-07T17:55:11.295Z,39.40
2019-06-07T17:57:37.876Z,39.90
2019-06-07T18:00:27.681Z,40.70
2019-06-07T18:02:34.859Z,40.30
2019-06-07T18:05:01.344Z,40.30
2019-06-07T18:07:27.901Z,40.70
2019-06-07T18:09:54.554Z,40.80
2019-06-07T18:12:21.223Z,42.20
2019-06-07T18:14:47.984Z,43.50
2019-06-07T18:17:14.695Z,43.60
2019-06-07T18:19:41.015Z,43.70
2019-06-07T18:22:07.609Z,44.20
2019-06-07T18:24:34.018Z,47.40
2019-06-07T18:27:00.656Z,53.10
2019-06-07T18:29:27.077Z,50.90
2019-06-07T18:31:55.106Z,49.50
2019-06-07T18:34:23.380Z,48.60
2019-06-07T18:36:51.069Z,47.40
2019-06-07T18:39:18.104Z,49.90
2019-06-07T18:41:44.576Z,47.60
2019-06-07T18:44:21.124Z,48.90
2019-06-07T18:46:40.541Z,48.90
2019-06-07T18:49:06.911Z,48.90
2019-06-07T18:51:33.450Z,48.20
2019-06-07T18:54:00.797Z,49.50
2019-06-07T18:56:27.643Z,48.60
2019-06-07T18:58:55.258Z,48.30
2019-06-07T19:01:22.143Z,50.10
2019-06-07T19:03:49.983Z,50.70
2019-06-07T19:06:16.628Z,50.70
2019-06-07T19:08:43.452Z,51.50
2019-06-07T19:11:09.747Z,51.60
2019-06-07T19:13:36.163Z,51.60
2019-06-07T19:16:05.177Z,50.80
2019-06-07T19:18:46.503Z,51.50
2019-06-07T19:21:11.437Z,51.30
2019-06-07T19:23:38.387Z,51.50
2019-06-07T19:26:05.791Z,51.90
2019-06-07T19:28:33.081Z,51.30
2019-06-07T19:30:59.545Z,51.50
2019-06-07T19:33:26.077Z,51.80
2019-06-07T19:35:53.427Z,52.30
2019-06-07T19:38:33.541Z,52.30
2019-06-07T19:41:16.490Z,51.90
2019-06-07T19:43:28.387Z,51.00
2019-06-07T19:45:55.985Z,50.80
2019-06-07T19:48:28.460Z,50.80
2019-06-07T19:50:54.968Z,51.40
2019-06-07T19:53:21.493Z,51.80
2019-06-07T19:55:48.131Z,51.90
2019-06-07T19:58:15.023Z,54.60
2019-06-07T20:00:41.289Z,55.20
2019-06-07T20:03:07.695Z,52.80
2019-06-07T20:05:34.471Z,52.40
2019-06-07T20:08:00.963Z,51.60
2019-06-07T20:10:27.368Z,51.60
2019-06-07T20:12:54.500Z,51.50
2019-06-07T20:15:28.986Z,51.90
2019-06-07T20:17:49.368Z,51.80
2019-06-07T20:20:15.815Z,51.30
2019-06-07T20:22:42.117Z,51.00
2019-06-07T20:25:09.306Z,50.80
2019-06-07T20:27:36.214Z,51.20
2019-06-07T20:30:08.569Z,51.20
2019-06-07T20:32:35.213Z,51.20
2019-06-07T20:35:01.978Z,50.70
2019-06-07T20:37:28.423Z,50.50
2019-06-07T20:39:54.756Z,50.50
2019-06-07T20:42:21.059Z,51.00
2019-06-07T20:44:47.763Z,51.00
2019-06-07T20:47:14.030Z,51.10
2019-06-07T20:49:40.369Z,51.30
2019-06-07T20:52:06.860Z,50.30
2019-06-07T20:54:33.280Z,51.00
2019-06-07T20:57:00.480Z,50.60
2019-06-07T20:59:27.020Z,51.00
2019-06-07T21:01:53.787Z,50.60
2019-06-07T21:04:20.105Z,51.00
2019-06-07T21:06:46.415Z,50.70
2019-06-07T21:09:12.851Z,50.80
2019-06-07T21:11:39.304Z,50.60
2019-06-07T21:14:06.124Z,51.00
2019-06-07T21:16:32.754Z,51.10
2019-06-07T21:19:00.033Z,50.90
2019-06-07T21:21:26.460Z,51.30
2019-06-07T21:23:52.874Z,50.80
2019-06-07T21:26:19.213Z,51.40
2019-06-07T21:28:45.644Z,51.30
2019-06-07T21:31:12.449Z,51.00
2019-06-07T21:33:38.857Z,51.30
2019-06-07T21:36:06.076Z,51.20
2019-06-07T21:38:32.624Z,51.30
2019-06-07T21:40:58.956Z,50.70
2019-06-07T21:43:25.379Z,50.80
2019-06-07T21:46:04.414Z,51.60
2019-06-07T21:48:20.166Z,51.60
2019-06-07T21:50:46.616Z,51.30
2019-06-07T21:53:13.023Z,51.70
2019-06-07T21:55:39.718Z,51.50
2019-06-07T21:58:07.059Z,51.70
2019-06-07T22:00:56.218Z,51.70
2019-06-07T22:03:22.576Z,51.10
2019-06-07T22:05:49.437Z,51.10
2019-06-07T22:08:16.122Z,50.90
2019-06-07T22:10:42.444Z,50.90
2019-06-07T22:13:10.072Z,50.60
2019-06-07T22:15:37.583Z,50.40
2019-06-07T22:18:04.476Z,50.40
2019-06-07T22:20:31.157Z,50.80
2019-06-07T22:22:59.394Z,50.50
2019-06-07T22:25:25.799Z,49.90
2019-06-07T22:27:52.128Z,50.30
2019-06-07T22:30:18.871Z,51.40
2019-06-07T22:32:45.175Z,51.10
2019-06-07T22:35:12.922Z,51.20
2019-06-07T22:37:39.792Z,51.30
2019-06-07T22:40:06.326Z,51.20
2019-06-07T22:42:32.992Z,51.30
2019-06-07T22:44:59.687Z,51.10
2019-06-07T22:47:26.056Z,51.10
2019-06-07T22:49:52.655Z,51.10
2019-06-07T22:52:19.003Z,51.30
2019-06-07T22:54:45.316Z,51.20
2019-06-07T22:57:14.156Z,50.90
2019-06-07T22:59:40.767Z,51.30
2019-06-07T23:02:08.332Z,50.60
2019-06-07T23:04:35.128Z,50.70
2019-06-07T23:07:01.632Z,51.50
2019-06-07T23:09:28.168Z,51.10
2019-06-07T23:11:54.599Z,51.10
2019-06-07T23:14:21.250Z,51.00
2019-06-07T23:16:55.531Z,51.10
2019-06-07T23:19:16.235Z,51.10
2019-06-07T23:21:42.943Z,51.80
2019-06-07T23:24:09.811Z,51.10
2019-06-07T23:26:36.377Z,50.90
2019-06-07T23:29:03.087Z,51.00
2019-06-07T23:31:30.768Z,51.00
2019-06-07T23:33:57.067Z,51.20
2019-06-07T23:36:23.642Z,51.10
2019-06-07T23:38:50.176Z,51.50
2019-06-07T23:41:17.700Z,50.90
2019-06-07T23:43:44.480Z,51.30
2019-06-07T23:46:11.439Z,51.30
2019-06-07T23:48:37.992Z,51.40
2019-06-07T23:51:04.420Z,51.10
2019-06-07T23:53:30.730Z,51.00
2019-06-07T23:55:57.143Z,51.10
2019-06-07T23:58:23.683Z,50.90
